CheckWX is a tool to help pilots better visualize weather data.  It is not intended as a substitute for an official pre-flight weather briefing.

01:05:53 UTC

SBNT TAF
Augusto Severo Airport
Natal, Brazil
TAF SBNT 232200Z 2400/2424 10007KT 8000 SCT010 BKN015 TN25/2407Z TX29/2414Z TEMPO 2400/2403 4000 RA SCT008 BKN012 BECMG 2403/2404 18005KT TEMPO 2407/2409 4000 RA SCT008 BKN012 BECMG 2411/2413 10011KT SCT015 FEW020TCU TEMPO 2413/2415 4000 TSRA SCT008 BKN015 FEW025CB RMK PEA

Feb-24@
00:00 UTC

Feb-24 @ 00:00 UTC

Feb-24@
03:00 UTC

Feb-24 @ 03:00 UTC

TAF SBNT 232200Z 2400/2424 10007KT 8000 SCT010 BKN015 TN25/2407Z TX29/2414Z
Wind
  • 100° at 7 KTS
Cloud Levels
  • Scattered at 1,000' AGL
  • Broken at 1,500' AGL

Feb-24@
00:00 UTC

Feb-24 @ 00:00 UTC

Feb-24@
03:00 UTC

Feb-24 @ 03:00 UTC

TEMPO 2400/2403 4000 RA SCT008 BKN012

Temporary

Temporary Changes expected for less than half the time period

Conditions
Rain
Cloud Levels
  • Scattered at 800' AGL
  • Broken at 1,200' AGL

Feb-24@
03:00 UTC

Feb-24 @ 03:00 UTC

Feb-24@
11:00 UTC

Feb-24 @ 11:00 UTC

BECMG 2403/2404 18005KT

Becoming

Becoming Conditions expected by Sun, Feb 24, 2019 @ 04:00 UTC

Wind
  • 180° at 5 KTS
Cloud Levels
  • Scattered at 1,000' AGL
  • Broken at 1,500' AGL

Feb-24@
07:00 UTC

Feb-24 @ 07:00 UTC

Feb-24@
09:00 UTC

Feb-24 @ 09:00 UTC

TEMPO 2407/2409 4000 RA SCT008 BKN012

Temporary

Temporary Changes expected for less than half the time period

Conditions
Rain
Cloud Levels
  • Scattered at 800' AGL
  • Broken at 1,200' AGL

Feb-24@
11:00 UTC

Feb-24 @ 11:00 UTC

Feb-25@
00:00 UTC

Feb-25 @ 00:00 UTC

BECMG 2411/2413 10011KT SCT015 FEW020TCU

Becoming

Becoming Conditions expected by Sun, Feb 24, 2019 @ 13:00 UTC

Wind
  • 100° at 11 KTS
Cloud Levels
  • Scattered at 1,500' AGL
  • Few at 2,000' AGL

Feb-24@
13:00 UTC

Feb-24 @ 13:00 UTC

Feb-24@
15:00 UTC

Feb-24 @ 15:00 UTC

TEMPO 2413/2415 4000 TSRA SCT008 BKN015 FEW025CB RMK PEA

Temporary

Temporary Changes expected for less than half the time period

Conditions
Thunderstorm, Rain
Cloud Levels
  • Scattered at 800' AGL
  • Broken at 1,500' AGL
  • Few at 2,500' AGL